createdAt,value
2023-05-10T00:00:21.514Z,0.00
2023-05-10T00:01:21.525Z,0.00
2023-05-10T00:02:21.605Z,0.00
2023-05-10T00:03:21.597Z,0.00
2023-05-10T00:04:21.741Z,0.00
2023-05-10T00:05:21.593Z,0.00
2023-05-10T00:06:21.604Z,0.00
2023-05-10T00:07:21.618Z,0.00
2023-05-10T00:08:21.634Z,0.00
2023-05-10T00:09:21.650Z,0.00
2023-05-10T00:10:21.670Z,0.00
2023-05-10T00:11:22.874Z,0.00
2023-05-10T00:12:21.703Z,0.00
2023-05-10T00:13:21.777Z,0.00
2023-05-10T00:14:21.728Z,0.00
2023-05-10T00:15:21.743Z,0.00
2023-05-10T00:16:21.816Z,0.00
2023-05-10T00:17:21.778Z,0.00
2023-05-10T00:18:21.788Z,0.00
2023-05-10T00:19:21.813Z,0.00
2023-05-10T00:20:21.821Z,0.00
2023-05-10T00:21:21.837Z,0.00
2023-05-10T00:22:21.858Z,0.00
2023-05-10T00:23:21.874Z,0.00
2023-05-10T00:24:21.880Z,0.00
2023-05-10T00:25:21.903Z,0.00
2023-05-10T00:26:21.913Z,0.00
2023-05-10T00:27:21.933Z,0.00
2023-05-10T00:28:21.960Z,0.00
2023-05-10T00:29:21.961Z,0.00
2023-05-10T00:30:21.989Z,0.00
2023-05-10T00:31:21.992Z,0.00
2023-05-10T00:32:22.079Z,0.00
2023-05-10T00:33:22.020Z,0.00
2023-05-10T00:34:22.038Z,0.00
2023-05-10T00:35:22.053Z,0.00
2023-05-10T00:36:22.077Z,0.00
2023-05-10T00:37:22.086Z,0.00
2023-05-10T00:38:22.101Z,0.00
2023-05-10T00:39:22.121Z,0.00
2023-05-10T00:40:22.139Z,0.00
2023-05-10T00:41:22.144Z,0.00
2023-05-10T00:42:22.161Z,0.00
2023-05-10T00:43:22.175Z,0.00
2023-05-10T00:44:22.193Z,0.00
2023-05-10T00:45:22.207Z,0.00
2023-05-10T00:46:22.272Z,0.00
2023-05-10T00:47:22.268Z,0.00
2023-05-10T00:48:22.252Z,0.00
2023-05-10T00:49:22.277Z,0.00
2023-05-10T00:50:22.283Z,0.00
2023-05-10T00:51:22.301Z,0.00
2023-05-10T00:52:22.316Z,0.00
2023-05-10T00:53:22.332Z,0.00
2023-05-10T00:54:22.350Z,0.00
2023-05-10T00:55:22.365Z,0.00
2023-05-10T00:56:22.375Z,0.00
2023-05-10T00:57:22.389Z,0.00
2023-05-10T00:58:22.406Z,0.00
2023-05-10T00:59:22.429Z,0.00
2023-05-10T01:00:22.441Z,0.00
2023-05-10T01:01:22.461Z,0.00
2023-05-10T01:02:22.691Z,0.00
2023-05-10T01:03:22.558Z,0.00
2023-05-10T01:04:22.500Z,0.00
2023-05-10T01:05:22.539Z,0.00
2023-05-10T01:06:22.535Z,0.00
2023-05-10T01:07:22.560Z,0.00
2023-05-10T01:08:22.570Z,0.00
2023-05-10T01:09:22.587Z,0.00
2023-05-10T01:10:22.606Z,0.00
2023-05-10T01:11:22.615Z,0.00
2023-05-10T01:12:22.653Z,0.00
2023-05-10T01:13:22.686Z,0.00
2023-05-10T01:14:22.657Z,0.00
2023-05-10T01:15:22.670Z,0.00
2023-05-10T01:16:22.756Z,0.00
2023-05-10T01:17:22.754Z,0.00
2023-05-10T01:18:22.717Z,0.00
2023-05-10T01:19:22.739Z,0.00
2023-05-10T01:20:22.764Z,0.00
2023-05-10T01:21:22.761Z,0.00
2023-05-10T01:22:22.785Z,0.00
2023-05-10T01:23:22.790Z,0.00
2023-05-10T01:24:22.816Z,0.00
2023-05-10T01:25:22.821Z,0.00
2023-05-10T01:26:22.848Z,0.00
2023-05-10T01:27:22.856Z,0.00
2023-05-10T01:28:22.868Z,0.00
2023-05-10T01:29:22.889Z,0.00
2023-05-10T01:30:22.942Z,0.00
2023-05-10T01:31:22.946Z,0.00
2023-05-10T01:32:22.930Z,0.00
2023-05-10T01:33:22.946Z,0.00
2023-05-10T01:34:22.960Z,0.00
2023-05-10T01:35:22.978Z,0.00
2023-05-10T01:36:22.991Z,0.00
2023-05-10T01:37:23.009Z,0.00
2023-05-10T01:38:23.021Z,0.00
2023-05-10T01:39:23.038Z,0.00
2023-05-10T01:40:23.049Z,0.00
2023-05-10T01:41:23.065Z,0.00
2023-05-10T01:42:23.082Z,0.00
2023-05-10T01:43:23.089Z,0.00
2023-05-10T01:44:23.121Z,0.00
2023-05-10T01:45:23.122Z,0.00
2023-05-10T01:46:23.163Z,0.00
2023-05-10T01:47:23.150Z,0.00
2023-05-10T01:48:23.165Z,0.00
2023-05-10T01:49:23.181Z,0.00
2023-05-10T01:50:23.201Z,0.00
2023-05-10T01:51:23.212Z,0.00
2023-05-10T01:52:23.227Z,0.00
2023-05-10T01:53:23.240Z,0.00
2023-05-10T01:54:23.258Z,0.00
2023-05-10T01:55:23.284Z,0.00
2023-05-10T01:56:23.288Z,0.00
2023-05-10T01:57:23.307Z,0.00
2023-05-10T01:58:23.313Z,0.00
2023-05-10T01:59:23.337Z,0.00
2023-05-10T02:00:23.346Z,0.00
2023-05-10T02:01:23.393Z,0.00
2023-05-10T02:02:23.376Z,0.00
2023-05-10T02:03:23.453Z,0.00
2023-05-10T02:04:23.406Z,0.00
2023-05-10T02:05:23.423Z,0.00
2023-05-10T02:06:23.439Z,0.00
2023-05-10T02:07:23.455Z,0.00
2023-05-10T02:08:23.467Z,0.00
2023-05-10T02:09:23.478Z,0.00
2023-05-10T02:10:23.497Z,0.00
2023-05-10T02:11:23.521Z,0.00
2023-05-10T02:12:23.526Z,0.00
2023-05-10T02:13:23.559Z,0.00
2023-05-10T02:14:23.557Z,0.00
2023-05-10T02:15:23.576Z,0.00
2023-05-10T02:16:23.633Z,0.00
2023-05-10T02:17:23.639Z,0.00
2023-05-10T02:18:23.614Z,0.00
2023-05-10T02:19:23.631Z,0.00
2023-05-10T02:20:23.656Z,0.00
2023-05-10T02:21:23.662Z,0.00
2023-05-10T02:22:23.678Z,0.00
2023-05-10T02:23:23.690Z,0.00
2023-05-10T02:24:23.701Z,0.00
2023-05-10T02:25:23.720Z,0.00
2023-05-10T02:26:23.734Z,0.00
2023-05-10T02:27:23.750Z,0.00
2023-05-10T02:28:23.769Z,0.00
2023-05-10T02:29:23.778Z,0.00
2023-05-10T02:30:23.794Z,0.00
2023-05-10T02:31:23.828Z,0.00
2023-05-10T02:32:23.842Z,0.00
2023-05-10T02:33:23.835Z,0.00
2023-05-10T02:34:23.851Z,0.00
2023-05-10T02:35:23.870Z,0.00
2023-05-10T02:36:23.888Z,0.00
2023-05-10T02:37:23.902Z,0.00
2023-05-10T02:38:23.920Z,0.00
2023-05-10T02:39:23.925Z,0.00
2023-05-10T02:40:23.953Z,4.00
2023-05-10T02:41:23.952Z,4.00
2023-05-10T02:42:23.969Z,4.00
2023-05-10T02:43:23.983Z,0.00
2023-05-10T02:44:24.008Z,4.00
2023-05-10T02:45:24.011Z,4.00
2023-05-10T02:46:24.044Z,4.00
2023-05-10T02:47:24.042Z,4.00
2023-05-10T02:48:24.062Z,8.00
2023-05-10T02:49:24.082Z,8.00
2023-05-10T02:50:24.084Z,8.00
2023-05-10T02:51:24.102Z,8.00
2023-05-10T02:52:24.117Z,8.00
2023-05-10T02:53:24.129Z,12.00
2023-05-10T02:54:24.147Z,12.00
2023-05-10T02:55:24.160Z,16.00
2023-05-10T02:56:24.179Z,16.00
2023-05-10T02:57:24.191Z,20.00
2023-05-10T02:58:24.205Z,24.00
2023-05-10T02:59:24.222Z,28.00
2023-05-10T03:00:24.232Z,32.00
2023-05-10T03:01:24.271Z,36.00
2023-05-10T03:02:24.302Z,40.00
2023-05-10T03:03:24.276Z,48.00
2023-05-10T03:04:24.314Z,48.00
2023-05-10T03:05:24.328Z,56.00
2023-05-10T03:06:24.319Z,68.00
2023-05-10T03:07:24.333Z,76.00
2023-05-10T03:08:24.382Z,80.00
2023-05-10T03:09:24.363Z,96.00
2023-05-10T03:10:24.375Z,104.00
2023-05-10T03:11:24.390Z,116.00
2023-05-10T03:12:24.410Z,128.00
2023-05-10T03:13:24.515Z,140.00
2023-05-10T03:14:24.435Z,156.00
2023-05-10T03:15:24.450Z,172.00
2023-05-10T03:16:24.509Z,188.00
2023-05-10T03:17:24.516Z,204.00
2023-05-10T03:18:24.495Z,224.00
2023-05-10T03:19:24.563Z,244.00
2023-05-10T03:20:24.538Z,264.00
2023-05-10T03:21:24.546Z,288.00
2023-05-10T03:22:24.556Z,312.00
2023-05-10T03:23:24.562Z,340.00
2023-05-10T03:24:24.594Z,364.00
2023-05-10T03:25:24.595Z,388.00
2023-05-10T03:26:24.613Z,424.00
2023-05-10T03:27:24.624Z,452.00
2023-05-10T03:28:24.635Z,480.00
2023-05-10T03:29:24.653Z,516.00
2023-05-10T03:30:24.669Z,548.00
2023-05-10T03:31:24.702Z,584.00
2023-05-10T03:32:24.753Z,620.00
2023-05-10T03:33:24.718Z,656.00
2023-05-10T03:34:24.731Z,692.00
2023-05-10T03:35:24.759Z,732.00
2023-05-10T03:36:24.751Z,768.00
2023-05-10T03:37:24.781Z,808.00
2023-05-10T03:38:24.781Z,848.00
2023-05-10T03:39:24.793Z,892.00
2023-05-10T03:40:24.805Z,932.00
2023-05-10T03:41:24.826Z,972.00
2023-05-10T03:42:24.837Z,1012.00
2023-05-10T03:43:24.854Z,1052.00
2023-05-10T03:44:24.864Z,1088.00
2023-05-10T03:45:24.890Z,1124.00
2023-05-10T03:46:24.955Z,1164.00
2023-05-10T03:47:24.964Z,1204.00
2023-05-10T03:48:24.922Z,1236.00
2023-05-10T03:49:24.934Z,1280.00
2023-05-10T03:50:24.954Z,1320.00
2023-05-10T03:51:24.965Z,1356.00
2023-05-10T03:52:25.004Z,1392.00
2023-05-10T03:53:24.993Z,1428.00
2023-05-10T03:54:25.009Z,1464.00
2023-05-10T03:55:25.025Z,1500.00
2023-05-10T03:56:25.042Z,1532.00
2023-05-10T03:57:25.054Z,1564.00
2023-05-10T03:58:25.065Z,1604.00
2023-05-10T03:59:25.086Z,1632.00
2023-05-10T04:00:25.099Z,1664.00
2023-05-10T04:01:25.117Z,1696.00
2023-05-10T04:02:25.337Z,1724.00
2023-05-10T04:03:25.243Z,1760.00
2023-05-10T04:04:25.152Z,1792.00
2023-05-10T04:05:25.165Z,1820.00
2023-05-10T04:06:25.215Z,1848.00
2023-05-10T04:07:25.206Z,1880.00
2023-05-10T04:08:25.214Z,1904.00
2023-05-10T04:09:25.223Z,1936.00
2023-05-10T04:10:25.237Z,1964.00
2023-05-10T04:11:25.251Z,1992.00
2023-05-10T04:12:25.269Z,2024.00
2023-05-10T04:13:25.315Z,2048.00
2023-05-10T04:14:25.293Z,2080.00
2023-05-10T04:15:25.320Z,2108.00
2023-05-10T04:16:25.368Z,2136.00
2023-05-10T04:17:25.397Z,2160.00
2023-05-10T04:18:25.362Z,2188.00
2023-05-10T04:19:25.364Z,2216.00
2023-05-10T04:20:25.389Z,2244.00
2023-05-10T04:21:25.393Z,2264.00
2023-05-10T04:22:25.413Z,2292.00
2023-05-10T04:23:25.425Z,2316.00
2023-05-10T04:24:25.440Z,2340.00
2023-05-10T04:25:25.451Z,2360.00
2023-05-10T04:26:25.469Z,2388.00
2023-05-10T04:27:25.479Z,2420.00
2023-05-10T04:28:25.504Z,2432.00
2023-05-10T04:29:25.511Z,2448.00
2023-05-10T04:30:25.520Z,2468.00
2023-05-10T04:31:25.714Z,2488.00
2023-05-10T04:32:25.599Z,2512.00
2023-05-10T04:33:25.565Z,2524.00
2023-05-10T04:34:25.590Z,2552.00
2023-05-10T04:35:25.598Z,2572.00
2023-05-10T04:36:25.618Z,2600.00
2023-05-10T04:37:25.633Z,2616.00
2023-05-10T04:38:25.645Z,2640.00
2023-05-10T04:39:25.655Z,2672.00
2023-05-10T04:40:25.664Z,2688.00
2023-05-10T04:41:25.680Z,2712.00
2023-05-10T04:42:25.700Z,2744.00
2023-05-10T04:43:25.706Z,2764.00
2023-05-10T04:44:25.732Z,2792.00
2023-05-10T04:45:25.748Z,2808.00
2023-05-10T04:46:25.824Z,2832.00
2023-05-10T04:47:25.787Z,2852.00
2023-05-10T04:48:25.781Z,2880.00
2023-05-10T04:49:25.796Z,2900.00
2023-05-10T04:50:25.820Z,2920.00
2023-05-10T04:51:25.825Z,2944.00
2023-05-10T04:52:25.839Z,2956.00
2023-05-10T04:53:25.860Z,2988.00
2023-05-10T04:54:25.883Z,3008.00
2023-05-10T04:55:25.882Z,3052.00
2023-05-10T04:56:25.895Z,3060.00
2023-05-10T04:57:25.912Z,3068.00
2023-05-10T04:58:25.953Z,3076.00
2023-05-10T04:59:25.942Z,3128.00
2023-05-10T05:00:25.958Z,3368.00
2023-05-10T05:01:26.100Z,3388.00
2023-05-10T05:02:26.014Z,3188.00
2023-05-10T05:03:26.076Z,3188.00
2023-05-10T05:04:26.027Z,3212.00
2023-05-10T05:05:26.026Z,3236.00
2023-05-10T05:06:26.097Z,3264.00
2023-05-10T05:07:26.057Z,3276.00
2023-05-10T05:08:26.072Z,3304.00
2023-05-10T05:09:26.093Z,3336.00
2023-05-10T05:10:26.109Z,3352.00
2023-05-10T05:11:26.122Z,3384.00
2023-05-10T05:12:26.135Z,3400.00
2023-05-10T05:13:26.227Z,3436.00
2023-05-10T05:14:26.218Z,3444.00
2023-05-10T05:15:26.182Z,3560.00
2023-05-10T05:16:26.294Z,3784.00
2023-05-10T05:17:26.276Z,4164.00
2023-05-10T05:18:26.223Z,3620.00
2023-05-10T05:19:26.240Z,3588.00
2023-05-10T05:20:26.249Z,3612.00
2023-05-10T05:21:26.272Z,3608.00
2023-05-10T05:22:26.280Z,3676.00
2023-05-10T05:23:26.295Z,3784.00
2023-05-10T05:24:26.320Z,4264.00
2023-05-10T05:25:26.326Z,4784.00
2023-05-10T05:26:26.342Z,4392.00
2023-05-10T05:27:26.353Z,4836.00
2023-05-10T05:28:26.383Z,4648.00
2023-05-10T05:29:26.392Z,7304.00
2023-05-10T05:30:26.432Z,10760.00
2023-05-10T05:31:26.429Z,11256.00
2023-05-10T05:32:26.456Z,13768.00
2023-05-10T05:33:26.464Z,22400.00
2023-05-10T05:34:26.467Z,23424.00
2023-05-10T05:35:26.483Z,19072.00
2023-05-10T05:36:26.490Z,11488.00
2023-05-10T05:37:26.506Z,10172.00
2023-05-10T05:38:26.522Z,7300.00
2023-05-10T05:39:26.540Z,7876.00
2023-05-10T05:40:26.559Z,11208.00
2023-05-10T05:41:26.571Z,9196.00
2023-05-10T05:42:26.609Z,6964.00
2023-05-10T05:43:26.647Z,5724.00
2023-05-10T05:44:26.613Z,5516.00
2023-05-10T05:45:26.632Z,5792.00
2023-05-10T05:46:26.696Z,6324.00
2023-05-10T05:47:26.705Z,6296.00
2023-05-10T05:48:26.681Z,6956.00
2023-05-10T05:49:26.720Z,10480.00
2023-05-10T05:50:26.721Z,5032.00
2023-05-10T05:51:26.732Z,7460.00
2023-05-10T05:52:26.746Z,6336.00
2023-05-10T05:53:26.764Z,6124.00
2023-05-10T05:54:26.867Z,5444.00
2023-05-10T05:55:26.834Z,7464.00
2023-05-10T05:56:26.822Z,10324.00
2023-05-10T05:57:26.830Z,9928.00
2023-05-10T05:58:26.867Z,12696.00
2023-05-10T05:59:26.871Z,14188.00
2023-05-10T06:00:26.905Z,12932.00
2023-05-10T06:01:26.899Z,11156.00
2023-05-10T06:02:26.983Z,7676.00
2023-05-10T06:03:27.090Z,6612.00
2023-05-10T06:04:27.021Z,6676.00
2023-05-10T06:05:26.964Z,6288.00
2023-05-10T06:06:26.977Z,6604.00
2023-05-10T06:07:27.005Z,7308.00
2023-05-10T06:08:27.018Z,8736.00
2023-05-10T06:09:27.032Z,12112.00
2023-05-10T06:10:27.054Z,14152.00
2023-05-10T06:11:27.072Z,11076.00
2023-05-10T06:12:27.082Z,10508.00
2023-05-10T06:13:27.214Z,11376.00
2023-05-10T06:14:27.118Z,16360.00
2023-05-10T06:15:27.140Z,22432.00
2023-05-10T06:16:27.191Z,19584.00
2023-05-10T06:17:27.189Z,19104.00
2023-05-10T06:18:27.199Z,16736.00
2023-05-10T06:19:27.215Z,13572.00
2023-05-10T06:20:27.366Z,22880.00
2023-05-10T06:21:27.253Z,23712.00
2023-05-10T06:22:27.266Z,30784.00
2023-05-10T06:23:27.277Z,40192.00
2023-05-10T06:24:27.301Z,44352.00
2023-05-10T06:25:27.314Z,44672.00
2023-05-10T06:26:27.330Z,44384.00
2023-05-10T06:27:27.345Z,43744.00
2023-05-10T06:28:27.365Z,42304.00
2023-05-10T06:29:27.386Z,43360.00
2023-05-10T06:30:27.467Z,43584.00
2023-05-10T06:31:27.474Z,42464.00
2023-05-10T06:32:27.458Z,42752.00
2023-05-10T06:33:27.467Z,43040.00
2023-05-10T06:34:27.488Z,42528.00
2023-05-10T06:35:27.520Z,42432.00
2023-05-10T06:36:27.552Z,44224.00
2023-05-10T06:37:27.551Z,45408.00
2023-05-10T06:38:27.562Z,47104.00
2023-05-10T06:39:27.586Z,45248.00
2023-05-10T06:40:27.613Z,43808.00
2023-05-10T06:41:27.630Z,44480.00
2023-05-10T06:42:27.664Z,46592.00
2023-05-10T06:43:27.674Z,47904.00
2023-05-10T06:44:27.698Z,46592.00
2023-05-10T06:45:27.727Z,45632.00
2023-05-10T06:46:27.764Z,44768.00
2023-05-10T06:47:27.861Z,45408.00
2023-05-10T06:48:27.795Z,46080.00
2023-05-10T06:49:27.808Z,44448.00
2023-05-10T06:50:27.833Z,43168.00
2023-05-10T06:51:27.853Z,40448.00
2023-05-10T06:52:27.875Z,36192.00
2023-05-10T06:53:27.900Z,34944.00
2023-05-10T06:54:27.924Z,33952.00
2023-05-10T06:55:27.952Z,33312.00
2023-05-10T06:56:27.976Z,33152.00
2023-05-10T06:57:31.616Z,32896.00
2023-05-10T06:58:28.013Z,32832.00
2023-05-10T06:59:28.095Z,32640.00
2023-05-10T07:00:28.129Z,32736.00
2023-05-10T07:01:28.114Z,32608.00
2023-05-10T07:02:28.227Z,32672.00
2023-05-10T07:03:28.126Z,32832.00
2023-05-10T07:04:28.187Z,32800.00
2023-05-10T07:05:28.229Z,32832.00
2023-05-10T07:06:33.522Z,33024.00
2023-05-10T07:07:28.232Z,33024.00
2023-05-10T07:08:28.249Z,33312.00
2023-05-10T07:09:28.272Z,33600.00
2023-05-10T07:10:28.298Z,33632.00
2023-05-10T07:11:28.335Z,33856.00
2023-05-10T07:12:28.381Z,33920.00
2023-05-10T07:13:28.400Z,34592.00
2023-05-10T07:14:28.402Z,35392.00
2023-05-10T07:15:28.423Z,35840.00
2023-05-10T07:16:28.486Z,35776.00
2023-05-10T07:17:28.612Z,35616.00
2023-05-10T07:18:28.508Z,35968.00
2023-05-10T07:19:28.519Z,36064.00
2023-05-10T07:20:28.551Z,36160.00
2023-05-10T07:21:28.591Z,36064.00
2023-05-10T07:22:28.602Z,36096.00
2023-05-10T07:23:28.622Z,36512.00
2023-05-10T07:24:28.658Z,36736.00
2023-05-10T07:25:28.697Z,36960.00
2023-05-10T07:26:28.697Z,37216.00
2023-05-10T07:27:28.746Z,37280.00
2023-05-10T07:28:28.748Z,37760.00
2023-05-10T07:29:28.771Z,38112.00
2023-05-10T07:30:28.811Z,38368.00
2023-05-10T07:31:28.858Z,38752.00
2023-05-10T07:32:28.930Z,39200.00
2023-05-10T07:33:28.878Z,39296.00
2023-05-10T07:34:28.901Z,39648.00
2023-05-10T07:35:28.919Z,39872.00
2023-05-10T07:36:28.956Z,40192.00
2023-05-10T07:37:28.973Z,40576.00
2023-05-10T07:38:29.008Z,40864.00
2023-05-10T07:39:29.027Z,41216.00
2023-05-10T07:40:29.055Z,41184.00
2023-05-10T07:41:29.084Z,41344.00
2023-05-10T07:42:29.105Z,41632.00
2023-05-10T07:43:29.334Z,41760.00
2023-05-10T07:44:29.154Z,41952.00
2023-05-10T07:45:29.200Z,42080.00
2023-05-10T07:46:29.228Z,42464.00
2023-05-10T07:47:29.246Z,42400.00
2023-05-10T07:48:29.256Z,43008.00
2023-05-10T07:49:29.286Z,43232.00
2023-05-10T07:50:29.326Z,43232.00
2023-05-10T07:51:29.338Z,43520.00
2023-05-10T07:52:29.379Z,43584.00
2023-05-10T07:53:29.410Z,44000.00
2023-05-10T07:54:29.420Z,44032.00
2023-05-10T07:55:29.453Z,44448.00
2023-05-10T07:56:29.472Z,44544.00
2023-05-10T07:57:29.496Z,44864.00
2023-05-10T07:58:29.526Z,45312.00
2023-05-10T07:59:29.552Z,45600.00
2023-05-10T08:00:29.616Z,45760.00
2023-05-10T08:01:29.601Z,45728.00
2023-05-10T08:02:29.720Z,46176.00
2023-05-10T08:03:29.765Z,46176.00
2023-05-10T08:04:29.750Z,46432.00
2023-05-10T08:05:29.713Z,46528.00
2023-05-10T08:06:29.741Z,47040.00
2023-05-10T08:07:29.767Z,47168.00
2023-05-10T08:08:29.811Z,47328.00
2023-05-10T08:09:29.824Z,47456.00
2023-05-10T08:10:29.857Z,47968.00
2023-05-10T08:11:29.878Z,47776.00
2023-05-10T08:12:29.905Z,48288.00
2023-05-10T08:13:29.949Z,48192.00
2023-05-10T08:14:29.959Z,48736.00
2023-05-10T08:15:29.986Z,48544.00
2023-05-10T08:16:30.202Z,48864.00
2023-05-10T08:17:30.101Z,49120.00
2023-05-10T08:18:30.134Z,49312.00
2023-05-10T08:19:30.101Z,49408.00
2023-05-10T08:20:30.130Z,49408.00
2023-05-10T08:21:30.153Z,49280.00
2023-05-10T08:22:30.205Z,48352.00
2023-05-10T08:23:30.206Z,37376.00
2023-05-10T08:24:30.244Z,17312.00
2023-05-10T08:25:30.261Z,8724.00
2023-05-10T08:26:30.290Z,21568.00
2023-05-10T08:27:30.308Z,41024.00
2023-05-10T08:28:30.347Z,48256.00
2023-05-10T08:29:32.860Z,49120.00
2023-05-10T08:30:30.399Z,49984.00
2023-05-10T08:31:30.464Z,50592.00
2023-05-10T08:32:30.481Z,50944.00
2023-05-10T08:33:30.472Z,52000.00
2023-05-10T08:34:30.498Z,52224.00
2023-05-10T08:35:30.519Z,52384.00
2023-05-10T08:36:30.546Z,52608.00
2023-05-10T08:37:30.578Z,53056.00
2023-05-10T08:38:30.602Z,53088.00
2023-05-10T08:39:30.975Z,51264.00
2023-05-10T08:40:30.649Z,35584.00
2023-05-10T08:41:30.685Z,14748.00
2023-05-10T08:42:30.698Z,15908.00
2023-05-10T08:43:30.755Z,38400.00
2023-05-10T08:44:30.762Z,54176.00
2023-05-10T08:45:30.801Z,55488.00
2023-05-10T08:46:30.825Z,55648.00
2023-05-10T08:47:30.854Z,55808.00
2023-05-10T08:48:30.857Z,56544.00
2023-05-10T08:49:30.880Z,56256.00
2023-05-10T08:50:30.919Z,56736.00
2023-05-10T08:51:30.924Z,56736.00
2023-05-10T08:52:30.952Z,57056.00
2023-05-10T08:53:30.980Z,57536.00
2023-05-10T08:54:31.005Z,57408.00
2023-05-10T08:55:31.035Z,57792.00
2023-05-10T08:56:31.057Z,57760.00
2023-05-10T08:57:31.076Z,58688.00
2023-05-10T08:58:31.103Z,58656.00
2023-05-10T08:59:31.153Z,58912.00
2023-05-10T09:00:31.160Z,59072.00
2023-05-10T09:01:31.230Z,59296.00
2023-05-10T09:02:31.228Z,59232.00
2023-05-10T09:03:31.243Z,59552.00
2023-05-10T09:04:31.292Z,59680.00
2023-05-10T09:05:31.355Z,59200.00
2023-05-10T09:06:31.305Z,59936.00
2023-05-10T09:07:31.331Z,59808.00
2023-05-10T09:08:31.357Z,60480.00
2023-05-10T09:09:31.377Z,60288.00
2023-05-10T09:10:31.412Z,60224.00
2023-05-10T09:11:31.424Z,60128.00
2023-05-10T09:12:31.473Z,60160.00
2023-05-10T09:13:31.480Z,60000.00
2023-05-10T09:14:31.507Z,60096.00
2023-05-10T09:15:31.531Z,59936.00
2023-05-10T09:16:31.602Z,59872.00
2023-05-10T09:17:31.629Z,59584.00
2023-05-10T09:18:31.611Z,59520.00
2023-05-10T09:19:31.632Z,58080.00
2023-05-10T09:20:31.660Z,53216.00
2023-05-10T09:21:31.684Z,32256.00
2023-05-10T09:22:31.725Z,13012.00
2023-05-10T09:23:31.735Z,22208.00
2023-05-10T09:24:31.759Z,45344.00
2023-05-10T09:25:31.786Z,53952.00
2023-05-10T09:26:31.818Z,53856.00
2023-05-10T09:27:31.838Z,51872.00
2023-05-10T09:28:31.861Z,49792.00
2023-05-10T09:29:31.889Z,47680.00
2023-05-10T09:30:32.009Z,45568.00
2023-05-10T09:31:31.981Z,43008.00
2023-05-10T09:32:32.075Z,40800.00
2023-05-10T09:33:31.995Z,38624.00
2023-05-10T09:34:32.041Z,36192.00
2023-05-10T09:35:32.065Z,34208.00
2023-05-10T09:36:32.076Z,32384.00
2023-05-10T09:37:32.100Z,30400.00
2023-05-10T09:38:32.127Z,29216.00
2023-05-10T09:39:32.153Z,28512.00
2023-05-10T09:40:32.185Z,28320.00
2023-05-10T09:41:32.229Z,28800.00
2023-05-10T09:42:32.259Z,29504.00
2023-05-10T09:43:32.273Z,30816.00
2023-05-10T09:44:32.308Z,33312.00
2023-05-10T09:45:32.327Z,39968.00
2023-05-10T09:46:32.455Z,53344.00
2023-05-10T09:47:32.449Z,61856.00
2023-05-10T09:48:32.421Z,61024.00
2023-05-10T09:49:32.444Z,54784.00
2023-05-10T09:50:32.454Z,38336.00
2023-05-10T09:51:32.508Z,29152.00
2023-05-10T09:52:32.510Z,39776.00
2023-05-10T09:53:32.544Z,55424.00
2023-05-10T09:54:32.579Z,62144.00
2023-05-10T09:55:32.597Z,56768.00
2023-05-10T09:56:32.625Z,39680.00
2023-05-10T09:57:34.628Z,21120.00
2023-05-10T09:58:32.683Z,13360.00
2023-05-10T09:59:32.708Z,21376.00
2023-05-10T10:00:32.739Z,40224.00
2023-05-10T10:01:32.817Z,58016.00
2023-05-10T10:02:32.822Z,64320.00
2023-05-10T10:03:32.821Z,64832.00
2023-05-10T10:04:32.874Z,65216.00
2023-05-10T10:05:32.891Z,64960.00
2023-05-10T10:06:32.912Z,66144.00
2023-05-10T10:07:32.959Z,65696.00
2023-05-10T10:08:32.969Z,65568.00
2023-05-10T10:09:32.997Z,65248.00
2023-05-10T10:10:33.043Z,65696.00
2023-05-10T10:11:33.070Z,65568.00
2023-05-10T10:12:33.093Z,65824.00
2023-05-10T10:13:33.119Z,65440.00
2023-05-10T10:14:33.150Z,65664.00
2023-05-10T10:15:33.190Z,65536.00
2023-05-10T10:16:33.241Z,65344.00
2023-05-10T10:17:33.260Z,65440.00
2023-05-10T10:18:33.330Z,65568.00
2023-05-10T10:19:33.305Z,65888.00
2023-05-10T10:20:33.349Z,65280.00
2023-05-10T10:21:33.371Z,65568.00
2023-05-10T10:22:33.404Z,65792.00
2023-05-10T10:23:33.434Z,65440.00
2023-05-10T10:24:33.478Z,65600.00
2023-05-10T10:25:33.522Z,65536.00
2023-05-10T10:26:33.543Z,65376.00
2023-05-10T10:27:33.568Z,65792.00
2023-05-10T10:28:33.598Z,65216.00
2023-05-10T10:29:33.631Z,65408.00
2023-05-10T10:30:33.668Z,65472.00
2023-05-10T10:31:33.739Z,65824.00
2023-05-10T10:32:33.743Z,65696.00
2023-05-10T10:33:33.796Z,65568.00
2023-05-10T10:34:33.804Z,64960.00
2023-05-10T10:35:33.843Z,65376.00
2023-05-10T10:36:33.868Z,65312.00
2023-05-10T10:37:33.903Z,65600.00
2023-05-10T10:38:33.948Z,64896.00
2023-05-10T10:39:33.979Z,65280.00
2023-05-10T10:40:34.830Z,65376.00
2023-05-10T10:41:34.057Z,65280.00
2023-05-10T10:42:34.073Z,65120.00
2023-05-10T10:43:34.122Z,64896.00
2023-05-10T10:44:34.145Z,64896.00
2023-05-10T10:45:34.181Z,64800.00
2023-05-10T10:46:34.227Z,65248.00
2023-05-10T10:47:34.430Z,65024.00
2023-05-10T10:48:34.281Z,65504.00
2023-05-10T10:49:34.344Z,64992.00
2023-05-10T10:50:34.360Z,65184.00
2023-05-10T10:51:34.395Z,64832.00
2023-05-10T10:52:34.546Z,65408.00
2023-05-10T10:53:34.462Z,64704.00
2023-05-10T10:54:34.498Z,64704.00
2023-05-10T10:55:34.544Z,64672.00
2023-05-10T10:56:36.397Z,65696.00
2023-05-10T10:57:34.603Z,65344.00
2023-05-10T10:58:34.652Z,65024.00
2023-05-10T10:59:34.681Z,65536.00
2023-05-10T11:00:34.708Z,65280.00
2023-05-10T11:01:34.838Z,65056.00
2023-05-10T11:02:34.819Z,65280.00
2023-05-10T11:03:34.818Z,64992.00
2023-05-10T11:04:34.916Z,65184.00
2023-05-10T11:05:34.894Z,65216.00
2023-05-10T11:06:34.930Z,65664.00
2023-05-10T11:07:34.987Z,65760.00
2023-05-10T11:08:37.474Z,65344.00
2023-05-10T11:09:35.047Z,65216.00
2023-05-10T11:10:35.076Z,64992.00
2023-05-10T11:11:35.108Z,65312.00
2023-05-10T11:12:35.146Z,65056.00
2023-05-10T11:13:35.185Z,65120.00
2023-05-10T11:14:35.218Z,64480.00
2023-05-10T11:15:35.255Z,65088.00
2023-05-10T11:16:35.438Z,64832.00
2023-05-10T11:17:35.392Z,64992.00
2023-05-10T11:18:35.393Z,64864.00
2023-05-10T11:19:35.402Z,64992.00
2023-05-10T11:20:35.436Z,64704.00
2023-05-10T11:21:35.478Z,64992.00
2023-05-10T11:22:35.510Z,64768.00
2023-05-10T11:23:35.546Z,64608.00
2023-05-10T11:24:35.581Z,63648.00
2023-05-10T11:25:35.618Z,64096.00
2023-05-10T11:26:35.668Z,63968.00
2023-05-10T11:27:35.697Z,64320.00
2023-05-10T11:28:35.733Z,64544.00
2023-05-10T11:29:35.766Z,63744.00
2023-05-10T11:30:35.825Z,64224.00
2023-05-10T11:31:35.855Z,63872.00
2023-05-10T11:32:35.896Z,64320.00
2023-05-10T11:33:35.915Z,63808.00
2023-05-10T11:34:35.958Z,63840.00
2023-05-10T11:35:35.988Z,63584.00
2023-05-10T11:36:36.023Z,64096.00
2023-05-10T11:37:36.061Z,63840.00
2023-05-10T11:38:36.098Z,63360.00
2023-05-10T11:39:36.130Z,63520.00
2023-05-10T11:40:36.174Z,63200.00
2023-05-10T11:41:36.213Z,62816.00
2023-05-10T11:42:36.257Z,62912.00
2023-05-10T11:43:36.281Z,62624.00
2023-05-10T11:44:36.330Z,62528.00
2023-05-10T11:45:36.404Z,62592.00
2023-05-10T11:46:36.440Z,62208.00
2023-05-10T11:47:36.484Z,62208.00
2023-05-10T11:48:36.468Z,62624.00
2023-05-10T11:49:36.505Z,62368.00
2023-05-10T11:50:36.548Z,61952.00
2023-05-10T11:51:36.591Z,61504.00
2023-05-10T11:52:36.612Z,61920.00
2023-05-10T11:53:36.655Z,61184.00
2023-05-10T11:54:36.709Z,60992.00
2023-05-10T11:55:36.729Z,60672.00
2023-05-10T11:56:36.762Z,60736.00
2023-05-10T11:57:36.797Z,61216.00
2023-05-10T11:58:36.837Z,60704.00
2023-05-10T11:59:36.872Z,60800.00
2023-05-10T12:00:36.921Z,60928.00
2023-05-10T12:01:36.958Z,61152.00
2023-05-10T12:02:37.051Z,60576.00
2023-05-10T12:03:37.118Z,60352.00
2023-05-10T12:04:37.086Z,59968.00
2023-05-10T12:05:37.086Z,59904.00
2023-05-10T12:06:37.126Z,60000.00
2023-05-10T12:07:37.164Z,59424.00
2023-05-10T12:08:37.201Z,59392.00
2023-05-10T12:09:43.890Z,58880.00
2023-05-10T12:10:37.276Z,58912.00
2023-05-10T12:11:37.310Z,58976.00
2023-05-10T12:12:37.358Z,58496.00